createdAt,value
2023-01-27T00:01:37.213Z,10.90
2023-01-27T00:04:05.593Z,10.40
2023-01-27T00:06:37.962Z,10.73
2023-01-27T00:09:06.350Z,10.73
2023-01-27T00:11:57.778Z,10.23
2023-01-27T00:14:26.175Z,11.17
2023-01-27T00:16:54.566Z,12.13
2023-01-27T00:19:23.006Z,12.30
2023-01-27T00:22:10.193Z,10.67
2023-01-27T00:24:38.594Z,11.87
2023-01-27T00:27:08.924Z,11.23
2023-01-27T00:29:40.030Z,11.60
2023-01-27T00:32:25.847Z,10.97
2023-01-27T00:34:54.242Z,12.83
2023-01-27T00:37:24.069Z,11.13
2023-01-27T00:39:54.718Z,10.80
2023-01-27T00:42:23.187Z,10.50
2023-01-27T00:45:05.548Z,11.60
2023-01-27T00:47:34.292Z,11.03
2023-01-27T00:50:02.814Z,11.10
2023-01-27T00:52:32.589Z,9.93
2023-01-27T00:55:01.238Z,11.20
2023-01-27T00:57:30.428Z,11.30
2023-01-27T00:59:59.839Z,11.20
2023-01-27T01:02:28.466Z,10.40
2023-01-27T01:04:57.159Z,10.80
2023-01-27T01:07:25.626Z,11.57
2023-01-27T01:09:55.407Z,11.13
2023-01-27T01:12:24.065Z,10.93
2023-01-27T01:14:54.061Z,11.03
2023-01-27T01:17:23.860Z,11.03
2023-01-27T01:19:52.272Z,10.30
2023-01-27T01:22:20.876Z,12.00
2023-01-27T01:24:49.343Z,12.03
2023-01-27T01:27:19.095Z,13.00
2023-01-27T01:29:47.542Z,12.47
2023-01-27T01:32:15.962Z,12.47
2023-01-27T01:34:45.190Z,12.10
2023-01-27T01:37:13.626Z,11.53
2023-01-27T01:39:43.014Z,14.10
2023-01-27T01:42:11.511Z,13.23
2023-01-27T01:44:46.076Z,12.67
2023-01-27T01:47:17.277Z,12.80
2023-01-27T01:49:47.526Z,13.70
2023-01-27T01:52:21.222Z,13.73
2023-01-27T01:54:50.723Z,12.83
2023-01-27T01:57:23.277Z,13.73
2023-01-27T01:59:55.987Z,12.03
2023-01-27T02:02:26.583Z,11.90
2023-01-27T02:04:56.711Z,12.40
2023-01-27T02:07:28.582Z,12.53
2023-01-27T02:09:58.000Z,12.67
2023-01-27T02:12:26.410Z,12.67
2023-01-27T02:14:56.371Z,12.00
2023-01-27T02:17:25.022Z,11.93
2023-01-27T02:19:57.537Z,13.53
2023-01-27T02:22:29.198Z,11.80
2023-01-27T02:25:01.484Z,12.30
2023-01-27T02:27:31.256Z,13.63
2023-01-27T02:30:01.174Z,11.47
2023-01-27T02:32:29.691Z,13.00
2023-01-27T02:34:58.358Z,12.37
2023-01-27T02:37:27.513Z,12.87
2023-01-27T02:39:57.323Z,14.00
2023-01-27T02:42:25.756Z,13.53
2023-01-27T02:44:55.507Z,12.77
2023-01-27T02:47:23.943Z,11.70
2023-01-27T02:49:54.400Z,12.20
2023-01-27T02:52:24.001Z,12.30
2023-01-27T02:54:54.086Z,12.10
2023-01-27T02:57:22.454Z,12.40
2023-01-27T03:00:13.255Z,13.17
2023-01-27T03:02:41.807Z,12.27
2023-01-27T03:05:11.329Z,13.23
2023-01-27T03:07:40.008Z,14.17
2023-01-27T03:10:08.925Z,14.37
2023-01-27T03:12:37.484Z,14.77
2023-01-27T03:15:23.950Z,15.03
2023-01-27T03:18:12.744Z,12.87
2023-01-27T03:20:42.195Z,13.27
2023-01-27T03:23:10.909Z,13.43
2023-01-27T03:25:42.739Z,13.87
2023-01-27T03:28:11.622Z,13.07
2023-01-27T03:30:53.958Z,13.40
2023-01-27T03:33:31.829Z,13.10
2023-01-27T03:36:22.092Z,12.60
2023-01-27T03:39:10.298Z,13.63
2023-01-27T03:41:56.421Z,13.23
2023-01-27T03:44:45.431Z,14.07
2023-01-27T03:47:13.830Z,13.33
2023-01-27T03:49:43.674Z,13.77
2023-01-27T03:52:12.045Z,14.20
2023-01-27T03:54:40.383Z,13.37
2023-01-27T03:57:09.241Z,13.83
2023-01-27T03:59:37.604Z,13.07
2023-01-27T04:02:23.616Z,13.37
2023-01-27T04:05:10.972Z,13.30
2023-01-27T04:07:42.915Z,13.17
2023-01-27T04:10:12.096Z,12.40
2023-01-27T04:12:39.459Z,11.20
2023-01-27T04:15:08.638Z,12.00
2023-01-27T04:17:38.841Z,12.20
2023-01-27T04:20:09.574Z,11.63
2023-01-27T04:22:38.009Z,12.13
2023-01-27T04:25:06.817Z,12.60
2023-01-27T04:27:35.416Z,11.30
2023-01-27T04:30:04.913Z,11.43
2023-01-27T04:32:33.317Z,12.57
2023-01-27T04:35:02.013Z,11.27
2023-01-27T04:37:32.021Z,11.47
2023-01-27T04:40:00.415Z,12.67
2023-01-27T04:42:28.984Z,11.37
2023-01-27T04:44:57.376Z,12.77
2023-01-27T04:47:25.777Z,13.63
2023-01-27T04:49:54.163Z,13.40
2023-01-27T04:52:22.664Z,13.30
2023-01-27T04:54:52.415Z,13.87
2023-01-27T04:57:20.778Z,11.77
2023-01-27T04:59:50.091Z,11.90
2023-01-27T05:02:18.479Z,13.93
2023-01-27T05:04:46.847Z,13.00
2023-01-27T05:07:15.174Z,13.13
2023-01-27T05:09:43.630Z,13.83
2023-01-27T05:12:13.337Z,12.93
2023-01-27T05:14:41.707Z,13.90
2023-01-27T05:17:10.252Z,12.83
2023-01-27T05:19:38.619Z,13.83
2023-01-27T05:22:07.295Z,13.77
2023-01-27T05:24:35.709Z,13.40
2023-01-27T05:27:04.256Z,13.23
2023-01-27T05:29:34.058Z,13.17
2023-01-27T05:32:02.535Z,12.53
2023-01-27T05:34:30.930Z,13.57
2023-01-27T05:36:59.313Z,14.40
2023-01-27T05:39:27.760Z,14.07
2023-01-27T05:41:56.145Z,14.27
2023-01-27T05:44:24.539Z,13.73
2023-01-27T05:46:54.314Z,12.30
2023-01-27T05:49:22.715Z,13.43
2023-01-27T05:51:51.116Z,13.07
2023-01-27T05:54:19.569Z,14.60
2023-01-27T05:56:48.043Z,12.47
2023-01-27T05:59:16.441Z,11.90
2023-01-27T06:01:44.960Z,12.77
2023-01-27T06:04:16.053Z,11.67
2023-01-27T06:06:44.425Z,12.27
2023-01-27T06:09:12.844Z,12.37
2023-01-27T06:11:41.260Z,12.70
2023-01-27T06:14:09.799Z,13.30
2023-01-27T06:16:38.350Z,13.20
2023-01-27T06:19:06.933Z,14.60
2023-01-27T06:21:39.951Z,13.97
2023-01-27T06:24:08.904Z,14.93
2023-01-27T06:26:37.617Z,14.93
2023-01-27T06:29:06.053Z,15.30
2023-01-27T06:31:34.550Z,14.73
2023-01-27T06:34:03.189Z,14.20
2023-01-27T06:36:31.620Z,13.70
2023-01-27T06:39:01.370Z,13.87
2023-01-27T06:41:33.181Z,13.77
2023-01-27T06:44:01.968Z,12.90
2023-01-27T06:46:30.374Z,14.47
2023-01-27T06:48:59.016Z,13.50
2023-01-27T06:51:27.458Z,14.50
2023-01-27T06:53:55.856Z,13.33
2023-01-27T06:56:25.583Z,11.70
2023-01-27T06:58:53.971Z,12.60
2023-01-27T07:01:22.812Z,12.63
2023-01-27T07:03:51.408Z,12.67
2023-01-27T07:06:20.352Z,14.53
2023-01-27T07:08:50.503Z,13.87
2023-01-27T07:11:19.155Z,13.53
2023-01-27T07:13:48.935Z,12.70
2023-01-27T07:16:17.347Z,13.80
2023-01-27T07:18:45.989Z,14.97
2023-01-27T07:21:14.799Z,14.10
2023-01-27T07:23:43.526Z,15.17
2023-01-27T07:26:24.261Z,14.93
2023-01-27T07:28:54.568Z,13.33
2023-01-27T07:31:23.134Z,15.03
2023-01-27T07:33:51.618Z,14.80
2023-01-27T07:36:20.097Z,13.67
2023-01-27T07:38:50.872Z,14.20
2023-01-27T07:41:19.740Z,14.33
2023-01-27T07:43:48.214Z,14.40
2023-01-27T07:46:21.067Z,14.13
2023-01-27T07:48:49.515Z,14.50
2023-01-27T07:51:18.035Z,14.53
2023-01-27T07:53:46.521Z,14.83
2023-01-27T07:56:15.234Z,15.50
2023-01-27T07:58:44.115Z,15.17
2023-01-27T08:01:13.256Z,15.97
2023-01-27T08:03:43.125Z,14.63
2023-01-27T08:06:12.808Z,15.57
2023-01-27T08:08:41.712Z,13.93
2023-01-27T08:11:10.823Z,15.17
2023-01-27T08:13:40.406Z,14.07
2023-01-27T08:16:13.987Z,14.53
2023-01-27T08:18:45.258Z,15.73
2023-01-27T08:21:15.707Z,16.27
2023-01-27T08:23:45.611Z,15.83
2023-01-27T08:26:15.525Z,15.10
2023-01-27T08:28:45.563Z,16.57
2023-01-27T08:31:16.222Z,15.43
2023-01-27T08:33:48.014Z,14.90
2023-01-27T08:36:20.985Z,15.27
2023-01-27T08:38:50.544Z,15.43
2023-01-27T08:41:20.680Z,16.87
2023-01-27T08:43:50.475Z,17.70
2023-01-27T08:46:20.350Z,17.73
2023-01-27T08:48:52.245Z,17.60
2023-01-27T08:51:21.941Z,16.80
2023-01-27T08:53:51.582Z,16.17
2023-01-27T08:56:21.589Z,15.87
2023-01-27T08:58:52.779Z,16.20
2023-01-27T09:01:23.246Z,15.73
2023-01-27T09:03:53.393Z,14.77
2023-01-27T09:06:22.844Z,13.17
2023-01-27T09:09:11.235Z,14.97
2023-01-27T09:11:41.576Z,14.20
2023-01-27T09:14:10.172Z,14.37
2023-01-27T09:16:38.781Z,14.77
2023-01-27T09:19:08.599Z,14.97
2023-01-27T09:21:37.048Z,15.30
2023-01-27T09:24:05.478Z,14.87
2023-01-27T09:26:33.896Z,15.20
2023-01-27T09:29:02.271Z,17.07
2023-01-27T09:31:30.806Z,13.97
2023-01-27T09:33:59.340Z,14.33
2023-01-27T09:36:29.722Z,14.13
2023-01-27T09:39:00.893Z,13.33
2023-01-27T09:41:41.773Z,13.90
2023-01-27T09:44:18.111Z,13.83
2023-01-27T09:46:59.905Z,14.53
2023-01-27T09:49:36.187Z,12.57
2023-01-27T09:52:12.092Z,12.43
2023-01-27T09:54:49.851Z,14.97
2023-01-27T09:57:22.888Z,13.80
2023-01-27T09:59:57.214Z,12.63
2023-01-27T10:02:37.426Z,15.00
2023-01-27T10:05:19.534Z,13.80
2023-01-27T10:07:56.879Z,15.10
2023-01-27T10:10:34.949Z,14.37
2023-01-27T10:13:12.689Z,13.20
2023-01-27T10:15:51.655Z,13.27
2023-01-27T10:18:29.203Z,13.47
2023-01-27T10:21:01.340Z,15.30
2023-01-27T10:23:36.579Z,14.27
2023-01-27T10:26:09.276Z,13.30
2023-01-27T10:28:39.569Z,13.33
2023-01-27T10:31:13.197Z,13.73
2023-01-27T10:33:47.067Z,12.93
2023-01-27T10:36:18.150Z,13.27
2023-01-27T10:38:49.932Z,13.77
2023-01-27T10:41:23.588Z,13.90
2023-01-27T10:44:00.116Z,12.67
2023-01-27T10:46:34.084Z,12.77
2023-01-27T10:49:05.239Z,13.20
2023-01-27T10:51:36.492Z,14.03
2023-01-27T10:54:09.899Z,13.60
2023-01-27T10:56:42.589Z,14.40
2023-01-27T10:59:14.340Z,14.30
2023-01-27T11:01:45.172Z,14.23
2023-01-27T11:04:16.839Z,14.53
2023-01-27T11:06:46.583Z,13.83
2023-01-27T11:09:19.085Z,14.80
2023-01-27T11:11:49.237Z,14.83
2023-01-27T11:14:19.408Z,14.80
2023-01-27T11:16:50.108Z,15.37
2023-01-27T11:19:28.009Z,14.90
2023-01-27T11:22:07.531Z,14.77
2023-01-27T11:24:44.517Z,16.00
2023-01-27T11:27:15.763Z,15.73
2023-01-27T11:29:48.319Z,16.40
2023-01-27T11:32:20.746Z,15.90
2023-01-27T11:34:55.687Z,16.57
2023-01-27T11:37:25.602Z,15.87
2023-01-27T11:39:56.190Z,14.47
2023-01-27T11:42:25.767Z,16.40
2023-01-27T11:44:56.333Z,17.00
2023-01-27T11:47:25.973Z,17.30
2023-01-27T11:49:54.851Z,15.43
2023-01-27T11:52:27.239Z,16.07
2023-01-27T11:54:59.642Z,16.23
2023-01-27T11:57:29.518Z,16.30
2023-01-27T12:00:01.159Z,17.33
2023-01-27T12:02:32.513Z,16.60
2023-01-27T12:05:04.954Z,17.10
2023-01-27T12:07:39.474Z,16.53
2023-01-27T12:10:22.667Z,16.37
2023-01-27T12:12:51.196Z,15.20
2023-01-27T12:15:21.850Z,15.20
2023-01-27T12:17:53.327Z,16.57
2023-01-27T12:20:28.102Z,14.93
2023-01-27T12:22:59.061Z,15.40
2023-01-27T12:25:30.161Z,14.87
2023-01-27T12:28:01.085Z,13.50
2023-01-27T12:30:31.331Z,13.83
2023-01-27T12:33:00.651Z,15.20
2023-01-27T12:35:30.872Z,15.83
2023-01-27T12:38:01.338Z,14.93
2023-01-27T12:40:31.610Z,15.77
2023-01-27T12:43:12.095Z,16.00
2023-01-27T12:45:40.903Z,15.03
2023-01-27T12:48:27.260Z,15.60
2023-01-27T12:50:56.612Z,15.40
2023-01-27T12:53:27.748Z,14.30
2023-01-27T12:56:00.381Z,15.23
2023-01-27T12:58:33.703Z,14.53
2023-01-27T13:01:02.836Z,14.73
2023-01-27T13:03:34.329Z,14.67
2023-01-27T13:06:02.869Z,15.07
2023-01-27T13:08:33.549Z,15.10
2023-01-27T13:11:05.063Z,15.70
2023-01-27T13:13:33.576Z,15.73
2023-01-27T13:16:05.178Z,15.17
2023-01-27T13:18:35.441Z,14.97
2023-01-27T13:21:09.273Z,14.60
2023-01-27T13:23:39.276Z,15.17
2023-01-27T13:26:12.454Z,15.53
2023-01-27T13:28:52.062Z,15.90
2023-01-27T13:31:24.077Z,16.20
2023-01-27T13:33:56.244Z,16.47
2023-01-27T13:36:29.528Z,14.73
2023-01-27T13:39:00.657Z,15.27
2023-01-27T13:41:34.612Z,15.67
2023-01-27T13:44:05.469Z,15.33
2023-01-27T13:46:38.431Z,15.73
2023-01-27T13:49:14.438Z,16.10
2023-01-27T13:51:42.999Z,16.40
2023-01-27T13:54:12.851Z,16.83
2023-01-27T13:56:50.551Z,14.87
2023-01-27T13:59:29.153Z,16.80
2023-01-27T14:02:01.810Z,17.37
2023-01-27T14:04:45.095Z,16.87
2023-01-27T14:07:19.811Z,17.87
2023-01-27T14:09:56.130Z,17.23
2023-01-27T14:12:31.900Z,16.60
2023-01-27T14:15:04.959Z,17.20
2023-01-27T14:17:39.969Z,17.20
2023-01-27T14:20:25.988Z,17.30
2023-01-27T14:23:00.404Z,17.97
2023-01-27T14:25:33.513Z,16.60
2023-01-27T14:28:10.733Z,17.20
2023-01-27T14:30:41.016Z,15.83
2023-01-27T14:33:14.247Z,18.73
2023-01-27T14:35:44.850Z,17.50
2023-01-27T14:38:18.041Z,16.27
2023-01-27T14:40:50.190Z,17.17
2023-01-27T14:43:24.013Z,16.20
2023-01-27T14:45:55.294Z,16.30
2023-01-27T14:48:28.460Z,16.57
2023-01-27T14:51:04.313Z,17.40
2023-01-27T14:53:39.396Z,17.13
2023-01-27T14:56:11.348Z,17.77
2023-01-27T14:58:46.081Z,15.73
2023-01-27T15:01:18.932Z,17.60
2023-01-27T15:03:53.281Z,17.37
2023-01-27T15:06:29.692Z,17.47
2023-01-27T15:09:03.793Z,16.57
2023-01-27T15:11:38.682Z,17.00
2023-01-27T15:14:19.036Z,17.30
2023-01-27T15:16:57.484Z,16.63
2023-01-27T15:19:55.713Z,16.60
2023-01-27T15:22:33.681Z,17.47
2023-01-27T15:25:20.111Z,17.43
2023-01-27T15:27:48.966Z,18.07
2023-01-27T15:30:25.751Z,17.13
2023-01-27T15:32:54.393Z,18.93
2023-01-27T15:35:41.115Z,18.13
2023-01-27T15:38:24.413Z,17.87
2023-01-27T15:40:57.856Z,18.53
2023-01-27T15:43:26.410Z,17.33
2023-01-27T15:45:58.301Z,18.70
2023-01-27T15:48:29.950Z,17.33
2023-01-27T15:51:01.471Z,15.80
2023-01-27T15:53:31.698Z,17.17
2023-01-27T15:56:01.514Z,16.97
2023-01-27T15:58:35.621Z,18.87
2023-01-27T16:01:07.392Z,19.47
2023-01-27T16:03:38.836Z,17.37
2023-01-27T16:06:09.860Z,18.13
2023-01-27T16:08:42.735Z,18.50
2023-01-27T16:11:24.037Z,19.83
2023-01-27T16:13:52.577Z,18.07
2023-01-27T16:16:31.708Z,18.33
2023-01-27T16:19:09.864Z,17.63
2023-01-27T16:21:47.610Z,17.73
2023-01-27T16:24:20.747Z,18.87
2023-01-27T16:26:51.202Z,19.63
2023-01-27T16:29:26.810Z,18.97
2023-01-27T16:32:00.300Z,19.47
2023-01-27T16:34:33.342Z,20.60
2023-01-27T16:37:06.307Z,20.27
2023-01-27T16:39:38.009Z,19.40
2023-01-27T16:42:06.667Z,21.80
2023-01-27T16:44:40.044Z,17.97
2023-01-27T16:47:17.049Z,19.23
2023-01-27T16:49:45.714Z,19.90
2023-01-27T16:52:19.917Z,19.30
2023-01-27T16:54:52.194Z,18.47
2023-01-27T16:57:33.869Z,17.23
2023-01-27T17:00:04.623Z,18.53
2023-01-27T17:02:35.053Z,18.23
2023-01-27T17:05:05.973Z,19.70
2023-01-27T17:07:34.729Z,19.40
2023-01-27T17:10:08.829Z,19.37
2023-01-27T17:12:38.086Z,19.57
2023-01-27T17:15:17.904Z,20.13
2023-01-27T17:17:47.778Z,20.10
2023-01-27T17:20:22.611Z,21.30
2023-01-27T17:22:54.283Z,19.87
2023-01-27T17:25:31.921Z,20.87
2023-01-27T17:28:01.831Z,20.00
2023-01-27T17:30:35.285Z,19.40
2023-01-27T17:33:07.195Z,21.17
2023-01-27T17:35:37.381Z,21.27
2023-01-27T17:38:09.161Z,21.03
2023-01-27T17:40:39.063Z,19.87
2023-01-27T17:43:23.689Z,20.87
2023-01-27T17:45:54.046Z,21.07
2023-01-27T17:48:23.815Z,21.80
2023-01-27T17:50:52.317Z,20.60
2023-01-27T17:53:24.763Z,21.13
2023-01-27T17:55:53.755Z,20.70
2023-01-27T17:58:24.430Z,20.90
2023-01-27T18:00:53.294Z,21.47
2023-01-27T18:03:24.766Z,20.13
2023-01-27T18:05:55.307Z,20.30
2023-01-27T18:08:24.000Z,20.73
2023-01-27T18:10:52.559Z,20.23
2023-01-27T18:13:36.747Z,18.97
2023-01-27T18:16:09.491Z,20.40
2023-01-27T18:18:38.016Z,19.90
2023-01-27T18:21:15.753Z,19.47
2023-01-27T18:23:45.354Z,18.13
2023-01-27T18:26:18.376Z,19.93
2023-01-27T18:28:47.391Z,20.27
2023-01-27T18:31:18.421Z,19.50
2023-01-27T18:33:47.367Z,20.57
2023-01-27T18:36:24.979Z,19.53
2023-01-27T18:38:54.469Z,18.90
2023-01-27T18:41:27.891Z,17.07
2023-01-27T18:43:59.022Z,19.63
2023-01-27T18:46:29.606Z,17.83
2023-01-27T18:49:01.562Z,18.23
2023-01-27T18:51:32.627Z,17.53
2023-01-27T18:54:01.710Z,18.77
2023-01-27T18:56:31.422Z,18.20
2023-01-27T18:58:59.888Z,19.07
2023-01-27T19:01:28.272Z,18.20
2023-01-27T19:03:58.285Z,19.40
2023-01-27T19:06:27.408Z,19.17
2023-01-27T19:08:57.224Z,18.07
2023-01-27T19:11:25.697Z,21.33
2023-01-27T19:13:54.159Z,19.93
2023-01-27T19:16:22.661Z,20.27
2023-01-27T19:18:51.194Z,17.73
2023-01-27T19:21:19.602Z,17.87
2023-01-27T19:23:49.582Z,16.63
2023-01-27T19:26:20.063Z,18.90
2023-01-27T19:28:49.266Z,18.67
2023-01-27T19:31:17.731Z,18.43
2023-01-27T19:33:47.533Z,19.30
2023-01-27T19:36:22.360Z,18.83
2023-01-27T19:38:51.129Z,18.50
2023-01-27T19:41:20.935Z,18.77
2023-01-27T19:43:50.080Z,17.70
2023-01-27T19:46:21.111Z,19.63
2023-01-27T19:48:51.079Z,18.07
2023-01-27T19:51:20.024Z,17.03
2023-01-27T19:53:48.545Z,17.43
2023-01-27T19:56:18.210Z,16.90
2023-01-27T19:58:50.010Z,18.63
2023-01-27T20:01:18.496Z,18.83
2023-01-27T20:03:46.967Z,18.50
2023-01-27T20:06:17.062Z,18.50
2023-01-27T20:08:45.551Z,18.00
2023-01-27T20:11:24.269Z,19.10
2023-01-27T20:13:53.986Z,17.43
2023-01-27T20:16:22.596Z,18.87
2023-01-27T20:18:51.123Z,18.40
2023-01-27T20:21:20.490Z,16.53
2023-01-27T20:23:48.879Z,17.43
2023-01-27T20:26:17.902Z,17.40
2023-01-27T20:28:46.858Z,16.67
2023-01-27T20:31:17.956Z,18.87
2023-01-27T20:33:50.052Z,18.77
2023-01-27T20:36:19.100Z,16.97
2023-01-27T20:38:47.553Z,17.80
2023-01-27T20:41:17.447Z,15.87
2023-01-27T20:43:45.859Z,17.77
2023-01-27T20:46:15.660Z,17.80
2023-01-27T20:48:46.622Z,17.30
2023-01-27T20:51:15.534Z,17.77
2023-01-27T20:53:45.853Z,16.60
2023-01-27T20:56:15.127Z,17.73
2023-01-27T20:58:43.549Z,17.60
2023-01-27T21:01:12.999Z,17.77
2023-01-27T21:03:41.628Z,19.00
2023-01-27T21:06:13.545Z,18.70
2023-01-27T21:08:44.323Z,19.00
2023-01-27T21:11:16.418Z,18.47
2023-01-27T21:13:46.837Z,17.67
2023-01-27T21:16:17.004Z,18.30
2023-01-27T21:18:46.478Z,18.33
2023-01-27T21:21:26.250Z,19.70
2023-01-27T21:23:56.127Z,18.17
2023-01-27T21:26:26.167Z,18.30
2023-01-27T21:28:55.748Z,19.50
2023-01-27T21:31:30.536Z,18.17
2023-01-27T21:34:01.679Z,19.07
2023-01-27T21:36:32.918Z,20.10
2023-01-27T21:39:02.860Z,18.37
2023-01-27T21:41:50.186Z,18.47
2023-01-27T21:44:38.277Z,19.43
2023-01-27T21:47:08.543Z,19.43
2023-01-27T21:49:59.183Z,20.00
2023-01-27T21:52:33.020Z,18.90
2023-01-27T21:55:04.774Z,21.43
2023-01-27T21:57:34.793Z,20.53
2023-01-27T22:00:05.660Z,21.43
2023-01-27T22:02:41.412Z,20.10
2023-01-27T22:05:10.454Z,20.83
2023-01-27T22:07:40.663Z,19.43
2023-01-27T22:10:10.359Z,19.30
2023-01-27T22:12:39.020Z,19.63
2023-01-27T22:15:07.905Z,20.10
2023-01-27T22:17:36.624Z,20.67
2023-01-27T22:20:05.250Z,21.43
2023-01-27T22:22:33.864Z,20.80
2023-01-27T22:25:03.683Z,21.73
2023-01-27T22:27:32.114Z,21.17
2023-01-27T22:30:00.585Z,22.97
2023-01-27T22:32:29.041Z,24.33
2023-01-27T22:34:57.487Z,24.17
2023-01-27T22:37:26.155Z,24.60
2023-01-27T22:39:54.550Z,22.93
2023-01-27T22:42:24.279Z,23.67
2023-01-27T22:44:52.691Z,24.70
2023-01-27T22:47:21.278Z,23.97
2023-01-27T22:49:49.663Z,25.13
2023-01-27T22:52:18.033Z,22.67
2023-01-27T22:54:46.560Z,24.20
2023-01-27T22:57:14.993Z,23.97
2023-01-27T22:59:44.746Z,23.23
2023-01-27T23:02:13.211Z,22.30
2023-01-27T23:04:41.653Z,21.03
2023-01-27T23:07:10.029Z,22.77
2023-01-27T23:09:38.424Z,22.23
2023-01-27T23:12:06.987Z,23.03
2023-01-27T23:14:36.327Z,20.90
2023-01-27T23:17:06.124Z,21.93
2023-01-27T23:19:34.493Z,18.73
2023-01-27T23:22:02.944Z,21.27
2023-01-27T23:24:31.362Z,19.50
2023-01-27T23:26:59.822Z,22.23
2023-01-27T23:29:29.319Z,22.47
2023-01-27T23:31:58.024Z,21.43
2023-01-27T23:34:27.840Z,23.47
2023-01-27T23:36:56.261Z,21.30
2023-01-27T23:39:24.773Z,22.13
2023-01-27T23:41:53.192Z,23.07
2023-01-27T23:44:21.679Z,23.73
2023-01-27T23:46:50.247Z,22.27
2023-01-27T23:49:18.981Z,22.53
2023-01-27T23:51:48.830Z,22.07
2023-01-27T23:54:17.375Z,21.20
2023-01-27T23:56:45.789Z,24.33
2023-01-27T23:59:14.566Z,24.03
